Time;durP1;ratioP1;P1;durP2;ratioP2;P2;SDS_P1;SDS_P2;PMS_P1;PMS_P2;Temp;Humidity;BMP_temperature;BMP_pressure;BME280_temperature;BME280_humidity;BME280_pressure;Samples;Min_cycle;Max_cycle;Signal;HPM_P1;HPM_P2
2021/06/13 04:02:33;;;;;;;8.05;3.85;;;13.60;99.90;;;;;;4993999;23;20282;-68
2021/06/13 04:05:00;;;;;;;4.15;3.78;;;13.60;99.90;;;;;;4934471;29;20624;-68
2021/06/13 04:07:27;;;;;;;6.63;3.33;;;13.70;99.90;;;;;;4935202;28;20213;-68
2021/06/13 04:09:54;;;;;;;9.60;4.07;;;13.70;99.90;;;;;;4934292;29;20762;-69
2021/06/13 04:12:23;;;;;;;5.20;3.90;;;13.80;99.90;;;;;;4934974;28;20287;-70
2021/06/13 04:14:52;;;;;;;6.27;3.70;;;13.80;99.90;;;;;;4934881;29;20705;-70
2021/06/13 04:17:20;;;;;;;4.50;4.05;;;13.80;99.90;;;;;;4935477;29;20835;-70
2021/06/13 04:19:49;;;;;;;6.10;3.67;;;13.80;99.90;;;;;;4934570;29;20312;-71
2021/06/13 04:22:19;;;;;;;3.97;3.40;;;13.90;99.90;;;;;;4935108;29;20489;-70
2021/06/13 04:24:47;;;;;;;5.95;3.70;;;13.90;99.90;;;;;;4935485;29;20559;-70
2021/06/13 04:27:14;;;;;;;10.37;4.00;;;13.80;99.90;;;;;;4935353;29;20257;-70
2021/06/13 04:29:41;;;;;;;4.50;3.30;;;13.90;99.90;;;;;;4934894;29;20867;-70
2021/06/13 04:32:09;;;;;;;6.93;3.33;;;13.90;99.90;;;;;;4934999;29;20791;-70
2021/06/13 04:34:36;;;;;;;6.60;3.40;;;13.90;99.90;;;;;;4934589;29;20210;-70
2021/06/13 04:37:04;;;;;;;4.25;3.85;;;13.90;99.90;;;;;;4935285;29;20281;-70
2021/06/13 04:39:31;;;;;;;6.75;3.85;;;13.90;99.90;;;;;;4929547;29;20218;-70
2021/06/13 04:41:58;;;;;;;6.67;3.60;;;13.90;99.90;;;;;;4916221;29;20226;-70
2021/06/13 04:44:25;;;;;;;7.03;3.03;;;13.90;99.90;;;;;;4915654;29;20474;-70
2021/06/13 04:46:51;;;;;;;8.02;4.10;;;14.00;99.90;;;;;;4916422;29;20492;-70
2021/06/13 04:49:18;;;;;;;6.70;3.87;;;14.10;99.90;;;;;;4915233;29;20226;-70
2021/06/13 04:51:50;;;;;;;3.40;3.00;;;14.20;99.90;;;;;;4917417;29;20866;-71
2021/06/13 04:54:44;;;;;;;8.93;4.70;;;14.20;99.90;;;;;;4916276;29;20843;-69
2021/06/13 04:57:23;;;;;;;7.33;4.33;;;14.20;99.90;;;;;;4916103;29;20919;-71
2021/06/13 04:59:50;;;;;;;5.53;3.37;;;14.20;99.90;;;;;;4915873;29;20466;-70
2021/06/13 05:02:17;;;;;;;7.53;3.10;;;14.20;99.90;;;;;;4915560;29;20862;-70
2021/06/13 05:04:44;;;;;;;5.20;3.40;;;14.20;99.90;;;;;;4914890;29;20506;-70
2021/06/13 05:07:10;;;;;;;4.80;3.73;;;14.20;99.90;;;;;;4916042;29;20871;-70
2021/06/13 05:09:39;;;;;;;6.00;3.60;;;14.20;99.90;;;;;;4915541;29;20489;-70
2021/06/13 05:12:06;;;;;;;5.40;3.13;;;14.10;99.90;;;;;;4915453;29;20880;-68
2021/06/13 05:14:33;;;;;;;5.13;4.63;;;14.10;99.90;;;;;;4915323;29;20478;-68
2021/06/13 05:16:59;;;;;;;5.07;3.57;;;14.10;99.90;;;;;;4915459;29;20879;-68
2021/06/13 05:19:26;;;;;;;4.33;3.60;;;14.20;99.90;;;;;;4914525;29;20470;-68
2021/06/13 05:21:52;;;;;;;4.50;3.30;;;14.20;99.90;;;;;;4919284;29;20486;-68
2021/06/13 05:24:19;;;;;;;4.70;3.50;;;14.20;99.90;;;;;;4918947;29;20494;-68
2021/06/13 05:26:47;;;;;;;5.30;3.60;;;14.20;99.90;;;;;;4919318;29;20494;-68
2021/06/13 05:29:14;;;;;;;5.97;3.50;;;14.30;99.90;;;;;;4923270;29;20529;-68
2021/06/13 05:31:40;;;;;;;5.97;3.40;;;14.40;99.90;;;;;;4937831;29;20493;-68
2021/06/13 05:34:07;;;;;;;4.90;2.90;;;14.50;99.90;;;;;;4937287;29;20473;-68
2021/06/13 05:36:34;;;;;;;5.60;3.40;;;14.60;99.90;;;;;;4937729;29;20477;-68
2021/06/13 05:39:01;;;;;;;4.33;3.70;;;14.60;99.90;;;;;;4937929;28;20481;-68
2021/06/13 05:41:27;;;;;;;8.17;4.23;;;14.70;99.90;;;;;;4937794;29;20489;-68
2021/06/13 05:43:56;;;;;;;5.50;3.80;;;14.70;99.90;;;;;;4937877;29;20507;-68
2021/06/13 05:46:24;;;;;;;9.10;5.00;;;14.70;99.90;;;;;;4937761;29;20469;-68
2021/06/13 05:48:50;;;;;;;7.50;3.43;;;14.80;99.90;;;;;;4937620;28;20469;-68
2021/06/13 05:51:17;;;;;;;7.27;3.57;;;14.80;99.90;;;;;;4936971;29;20481;-68
2021/06/13 05:53:44;;;;;;;7.33;3.63;;;15.00;99.90;;;;;;4937586;29;20830;-68
2021/06/13 05:56:10;;;;;;;5.83;3.43;;;15.30;99.90;;;;;;4937477;29;20828;-68
2021/06/13 05:58:37;;;;;;;6.43;3.30;;;15.60;99.90;;;;;;4937760;29;20477;-68
2021/06/13 06:01:05;;;;;;;4.63;2.90;;;15.80;99.90;;;;;;4937038;29;20505;-69
2021/06/13 06:03:32;;;;;;;5.57;3.33;;;15.90;99.90;;;;;;4937568;29;20477;-68
2021/06/13 06:05:58;;;;;;;4.93;3.10;;;15.80;99.90;;;;;;4936893;29;20980;-70
2021/06/13 06:08:27;;;;;;;9.83;3.40;;;15.70;99.90;;;;;;4937830;29;20469;-70
2021/06/13 06:10:54;;;;;;;3.03;2.67;;;15.80;99.90;;;;;;4937462;29;20552;-70
2021/06/13 06:13:21;;;;;;;7.83;3.83;;;15.90;99.90;;;;;;4937605;29;20490;-70
2021/06/13 06:15:48;;;;;;;9.23;3.97;;;15.90;99.90;;;;;;4937105;29;20579;-70
2021/06/13 06:18:16;;;;;;;6.80;3.43;;;16.00;99.90;;;;;;4930613;29;20466;-70
2021/06/13 06:20:43;;;;;;;6.93;3.07;;;15.90;99.90;;;;;;4917355;29;20502;-70
2021/06/13 06:23:09;;;;;;;3.63;3.30;;;15.80;99.90;;;;;;4918422;29;20462;-70
2021/06/13 06:25:36;;;;;;;5.37;3.10;;;15.80;99.90;;;;;;4918063;29;20474;-70
2021/06/13 06:28:03;;;;;;;4.03;3.03;;;15.80;99.90;;;;;;4918631;29;20466;-70
2021/06/13 06:30:30;;;;;;;6.87;3.90;;;15.80;99.90;;;;;;4917992;29;20486;-70
2021/06/13 06:32:57;;;;;;;4.60;2.77;;;15.70;99.90;;;;;;4917777;29;20593;-70
2021/06/13 06:35:26;;;;;;;7.70;3.90;;;15.70;99.90;;;;;;4917519;29;20467;-70
2021/06/13 06:37:53;;;;;;;7.10;3.40;;;15.60;99.90;;;;;;4918075;29;20478;-70
2021/06/13 06:40:20;;;;;;;5.53;3.30;;;15.50;99.90;;;;;;4917972;29;20545;-70
2021/06/13 06:42:47;;;;;;;6.73;3.00;;;15.40;99.90;;;;;;4917734;29;20537;-70
2021/06/13 06:45:14;;;;;;;4.63;3.23;;;15.50;99.90;;;;;;4917844;29;20469;-70
2021/06/13 06:47:42;;;;;;;7.00;4.00;;;15.50;99.90;;;;;;4918103;29;20489;-70
2021/06/13 06:50:10;;;;;;;3.50;2.73;;;15.50;99.90;;;;;;4916833;29;20887;-69
2021/06/13 06:52:38;;;;;;;5.97;3.93;;;15.60;99.90;;;;;;4917353;29;20493;-70
2021/06/13 06:55:06;;;;;;;5.13;3.37;;;15.60;99.90;;;;;;4917342;29;20819;-70
2021/06/13 06:57:33;;;;;;;3.13;2.80;;;15.70;99.90;;;;;;4925214;29;20477;-70
2021/06/13 07:00:00;;;;;;;6.40;3.43;;;15.60;99.90;;;;;;4937015;29;20825;-70
2021/06/13 07:02:27;;;;;;;5.43;3.70;;;15.70;99.90;;;;;;4936014;29;20513;-70
2021/06/13 07:04:54;;;;;;;6.73;3.27;;;15.70;99.90;;;;;;4935565;29;20465;-70
2021/06/13 07:07:21;;;;;;;11.77;3.90;;;15.70;99.90;;;;;;4936484;29;20801;-70
2021/06/13 07:09:49;;;;;;;5.20;3.83;;;15.80;99.90;;;;;;4935775;28;20493;-70
2021/06/13 07:12:16;;;;;;;8.60;3.97;;;15.80;99.90;;;;;;4937984;29;20513;-71
2021/06/13 07:14:43;;;;;;;4.87;3.50;;;16.00;99.90;;;;;;4937335;29;20469;-70
2021/06/13 07:17:09;;;;;;;3.70;3.30;;;17.10;99.90;;;;;;4936495;29;20858;-70
2021/06/13 07:19:36;;;;;;;5.70;3.33;;;18.10;99.90;;;;;;4935282;29;20473;-70
2021/06/13 07:22:03;;;;;;;5.93;3.23;;;18.90;99.90;;;;;;4936190;29;20497;-69
2021/06/13 07:24:30;;;;;;;6.53;3.57;;;19.20;99.90;;;;;;4935899;29;20950;-70
2021/06/13 07:26:58;;;;;;;7.10;3.17;;;19.10;99.90;;;;;;4936283;29;20492;-70
2021/06/13 07:29:25;;;;;;;3.90;3.50;;;18.70;99.90;;;;;;4935728;29;20581;-70
2021/06/13 07:31:51;;;;;;;5.80;3.60;;;18.10;99.90;;;;;;4936010;28;20922;-70
2021/06/13 07:34:18;;;;;;;5.63;3.27;;;17.80;99.90;;;;;;4934666;29;20520;-69
2021/06/13 07:36:45;;;;;;;5.40;3.00;;;17.50;99.90;;;;;;4936088;29;20476;-70
2021/06/13 07:39:11;;;;;;;5.03;3.67;;;17.30;99.90;;;;;;4935410;29;20896;-69
2021/06/13 07:41:38;;;;;;;4.93;3.30;;;17.20;99.90;;;;;;4935914;29;20493;-70
2021/06/13 07:44:07;;;;;;;4.33;3.50;;;17.50;99.90;;;;;;4934818;29;20494;-70
2021/06/13 07:46:34;;;;;;;6.60;3.50;;;17.60;99.90;;;;;;4929819;29;20482;-70
2021/06/13 07:49:01;;;;;;;7.43;4.20;;;17.60;99.90;;;;;;4934783;29;20533;-69
2021/06/13 07:51:28;;;;;;;3.90;3.70;;;17.70;99.90;;;;;;4935003;29;20493;-70
2021/06/13 07:53:55;;;;;;;4.60;3.60;;;17.50;99.90;;;;;;4935557;29;20493;-70
2021/06/13 07:56:21;;;;;;;4.70;4.07;;;17.30;99.90;;;;;;4935742;29;20539;-70
2021/06/13 07:58:48;;;;;;;4.90;4.47;;;17.10;99.90;;;;;;4935867;29;20474;-70
2021/06/13 08:01:16;;;;;;;7.67;3.27;;;17.10;99.90;;;;;;4935153;29;20493;-70
2021/06/13 08:03:43;;;;;;;4.20;3.40;;;17.40;99.90;;;;;;4935389;29;20469;-70
2021/06/13 08:06:09;;;;;;;8.53;3.03;;;17.50;99.90;;;;;;4934332;29;20473;-70
2021/06/13 08:08:36;;;;;;;4.40;3.03;;;17.50;99.90;;;;;;4935653;29;20482;-68
2021/06/13 08:11:04;;;;;;;3.77;3.40;;;17.90;99.90;;;;;;4935274;29;20493;-68
2021/06/13 08:13:31;;;;;;;7.53;4.57;;;18.30;99.90;;;;;;4935352;29;21009;-68
2021/06/13 08:15:58;;;;;;;6.77;3.50;;;18.20;99.90;;;;;;4935204;29;20465;-68
2021/06/13 08:18:26;;;;;;;8.20;3.60;;;18.00;99.90;;;;;;4927226;29;20466;-68
2021/06/13 08:20:53;;;;;;;3.40;3.10;;;17.90;99.90;;;;;;4915237;29;20505;-68
2021/06/13 08:23:20;;;;;;;4.20;3.40;;;18.00;99.90;;;;;;4916450;29;20607;-68
2021/06/13 08:25:47;;;;;;;5.40;3.33;;;18.30;99.90;;;;;;4915986;29;20844;-68
2021/06/13 08:28:14;;;;;;;3.80;3.40;;;18.20;99.90;;;;;;4916436;29;20565;-68
2021/06/13 08:30:40;;;;;;;6.07;3.47;;;18.10;99.90;;;;;;4915692;29;21026;-68
2021/06/13 08:33:07;;;;;;;5.60;3.80;;;17.90;99.90;;;;;;4916146;29;20490;-69
2021/06/13 08:35:35;;;;;;;5.70;3.20;;;17.80;99.90;;;;;;4915483;29;20497;-68
2021/06/13 08:38:03;;;;;;;8.30;4.50;;;17.50;99.90;;;;;;4916336;29;20471;-68
2021/06/13 08:40:30;;;;;;;6.20;4.20;;;17.40;99.90;;;;;;4916093;29;20542;-68
2021/06/13 08:42:58;;;;;;;4.67;3.43;;;17.40;99.90;;;;;;4915831;29;20506;-68
2021/06/13 08:45:26;;;;;;;9.77;3.87;;;17.40;99.90;;;;;;4915897;29;20474;-68
2021/06/13 08:47:55;;;;;;;3.33;3.03;;;17.50;99.90;;;;;;4916024;29;20470;-68
2021/06/13 08:50:22;;;;;;;5.97;4.10;;;17.80;99.90;;;;;;4915235;29;20557;-68
2021/06/13 08:52:52;;;;;;;4.87;3.80;;;17.90;99.90;;;;;;4915879;29;20494;-68
2021/06/13 08:55:21;;;;;;;3.73;3.43;;;17.90;99.90;;;;;;4917200;29;20482;-68
2021/06/13 08:57:49;;;;;;;4.53;3.30;;;17.80;99.90;;;;;;4929332;29;20799;-68
2021/06/13 09:00:21;;;;;;;6.50;3.40;;;17.60;99.90;;;;;;4938641;29;20962;-68
2021/06/13 09:02:48;;;;;;;5.50;3.10;;;17.40;99.90;;;;;;4939088;29;20488;-68
2021/06/13 09:05:19;;;;;;;3.07;2.87;;;17.30;99.90;;;;;;4938053;29;20520;-69
2021/06/13 09:07:52;;;;;;;5.70;4.33;;;17.30;99.90;;;;;;4938811;29;20524;-68
2021/06/13 09:10:23;;;;;;;5.40;3.87;;;17.30;99.90;;;;;;4938363;29;20484;-68
2021/06/13 09:12:50;;;;;;;6.03;3.77;;;17.50;99.90;;;;;;4938148;29;20470;-68
2021/06/13 09:15:18;;;;;;;5.33;3.63;;;18.10;99.90;;;;;;4938263;29;20472;-68
2021/06/13 09:17:45;;;;;;;4.13;3.37;;;18.70;99.90;;;;;;4938479;29;20555;-69
2021/06/13 09:20:19;;;;;;;4.27;3.30;;;19.10;99.90;;;;;;4937341;29;20556;-69
2021/06/13 09:23:09;;;;;;;5.53;3.73;;;19.20;99.90;;;;;;4938027;29;20469;-70
2021/06/13 09:25:37;;;;;;;4.37;4.00;;;19.00;99.90;;;;;;4938829;29;20896;-68
2021/06/13 09:28:12;;;;;;;6.53;3.30;;;18.60;99.90;;;;;;4938352;29;20471;-68
2021/06/13 09:30:42;;;;;;;3.47;3.17;;;18.40;99.90;;;;;;4937974;29;20487;-68
2021/06/13 09:33:12;;;;;;;3.87;3.40;;;18.40;99.90;;;;;;4937936;29;20485;-68
2021/06/13 09:35:40;;;;;;;4.93;3.63;;;18.40;99.90;;;;;;4936875;29;20521;-68
2021/06/13 09:38:20;;;;;;;4.97;3.63;;;18.70;99.90;;;;;;4938240;29;20467;-68
2021/06/13 09:40:52;;;;;;;4.73;3.77;;;19.20;99.90;;;;;;4937576;29;21075;-68
2021/06/13 09:43:24;;;;;;;4.87;3.40;;;19.20;99.90;;;;;;4937890;29;20500;-68
2021/06/13 09:45:55;;;;;;;6.33;3.97;;;19.10;99.90;;;;;;4937675;29;20482;-68
2021/06/13 09:48:22;;;;;;;4.60;4.10;;;19.10;99.90;;;;;;4918773;29;20462;-68
2021/06/13 09:50:51;;;;;;;6.37;3.57;;;18.90;99.90;;;;;;4918157;29;20823;-68
2021/06/13 09:53:25;;;;;;;11.33;4.97;;;18.80;99.90;;;;;;4918585;29;20486;-68
2021/06/13 09:56:20;;;;;;;5.43;4.77;;;18.60;99.90;;;;;;4918608;29;20476;-68
2021/06/13 09:58:49;;;;;;;9.30;4.17;;;18.30;99.90;;;;;;4918556;29;20493;-68
2021/06/13 10:01:16;;;;;;;5.90;4.63;;;18.20;99.90;;;;;;4918354;29;20549;-68
2021/06/13 10:03:46;;;;;;;5.30;4.37;;;18.00;99.90;;;;;;4918477;29;20458;-68
2021/06/13 10:06:14;;;;;;;4.40;4.00;;;18.00;99.90;;;;;;4917206;29;20473;-68
2021/06/13 10:08:43;;;;;;;7.60;4.17;;;18.00;99.90;;;;;;4918412;29;20490;-68
2021/06/13 10:11:10;;;;;;;4.40;4.00;;;18.20;99.90;;;;;;4917969;29;20592;-68
2021/06/13 10:13:58;;;;;;;3.80;3.50;;;18.60;99.90;;;;;;4918676;29;20494;-68
2021/06/13 10:16:44;;;;;;;5.17;3.67;;;18.80;99.90;;;;;;4918209;29;20947;-68
2021/06/13 10:19:13;;;;;;;5.77;4.63;;;19.10;99.90;;;;;;4931769;29;20891;-68
2021/06/13 10:21:43;;;;;;;4.27;3.30;;;19.20;99.90;;;;;;4937061;28;20504;-68
2021/06/13 10:24:14;;;;;;;6.27;3.93;;;18.90;99.90;;;;;;4937287;29;20572;-68
2021/06/13 10:26:43;;;;;;;7.53;3.87;;;18.80;99.90;;;;;;4937721;29;20927;-68
2021/06/13 10:29:11;;;;;;;5.17;4.40;;;18.80;99.90;;;;;;4938140;29;20502;-68
2021/06/13 10:31:38;;;;;;;4.20;3.40;;;18.80;99.90;;;;;;4937136;29;20588;-68
2021/06/13 10:34:06;;;;;;;9.07;4.03;;;18.70;99.90;;;;;;4936264;29;20521;-68
2021/06/13 10:36:34;;;;;;;5.43;4.13;;;18.70;99.90;;;;;;4936692;29;20801;-68
2021/06/13 10:39:01;;;;;;;6.03;4.10;;;18.90;99.90;;;;;;4936969;29;20466;-70
2021/06/13 10:41:29;;;;;;;4.80;4.40;;;19.00;99.90;;;;;;4937012;28;20839;-71
2021/06/13 10:44:01;;;;;;;4.03;3.40;;;18.90;99.90;;;;;;4936698;29;21035;-69
2021/06/13 10:46:30;;;;;;;6.83;4.67;;;19.00;99.90;;;;;;4936960;29;20505;-70
2021/06/13 10:48:59;;;;;;;4.80;3.53;;;19.30;99.90;;;;;;4937023;29;20466;-69
2021/06/13 10:51:33;;;;;;;3.70;3.37;;;19.40;99.90;;;;;;4936393;29;20557;-70
2021/06/13 10:54:22;;;;;;;3.90;3.60;;;19.70;99.90;;;;;;4936427;29;20497;-70
2021/06/13 10:56:51;;;;;;;5.17;4.67;;;20.00;99.90;;;;;;4936742;29;20466;-69
2021/06/13 10:59:20;;;;;;;3.80;3.47;;;20.00;99.90;;;;;;4938110;29;20889;-68
2021/06/13 11:01:58;;;;;;;8.27;3.80;;;20.10;99.90;;;;;;4938144;29;20507;-69
2021/06/13 11:04:41;;;;;;;4.00;3.57;;;20.20;99.90;;;;;;4936349;28;20986;-70
2021/06/13 11:07:08;;;;;;;4.10;3.70;;;20.20;99.90;;;;;;4932831;29;20878;-68
2021/06/13 11:09:55;;;;;;;8.97;3.83;;;20.10;99.90;;;;;;4932274;29;20827;-68
2021/06/13 11:12:45;;;;;;;3.60;3.30;;;20.20;99.90;;;;;;4936062;29;20493;-68
2021/06/13 11:15:12;;;;;;;5.13;3.80;;;20.10;99.90;;;;;;4935680;28;20521;-68
2021/06/13 11:17:56;;;;;;;6.93;4.07;;;20.10;99.90;;;;;;4935896;29;20466;-68
2021/06/13 11:20:48;;;;;;;6.63;4.70;;;20.30;99.90;;;;;;4935348;29;20891;-68
2021/06/13 11:23:31;;;;;;;4.80;3.90;;;20.40;99.90;;;;;;4936163;29;20489;-68
2021/06/13 11:26:00;;;;;;;6.10;3.60;;;20.30;99.90;;;;;;4937616;29;20545;-68
2021/06/13 11:28:30;;;;;;;3.47;3.17;;;20.30;99.90;;;;;;4936156;29;20628;-68
2021/06/13 11:30:59;;;;;;;3.60;3.30;;;20.20;99.90;;;;;;4936534;29;20516;-67
2021/06/13 11:33:37;;;;;;;3.90;2.93;;;20.10;99.90;;;;;;4936048;29;20648;-68
2021/06/13 11:36:06;;;;;;;4.73;4.23;;;20.10;99.90;;;;;;4934763;29;20483;-68
2021/06/13 11:38:33;;;;;;;3.60;3.30;;;20.00;99.90;;;;;;4936027;29;20923;-68
2021/06/13 11:41:02;;;;;;;4.40;3.70;;;20.10;99.90;;;;;;4935595;29;20485;-69
2021/06/13 11:43:45;;;;;;;3.60;3.30;;;20.20;99.90;;;;;;4936112;29;20469;-69
2021/06/13 11:46:13;;;;;;;4.53;3.10;;;20.10;99.90;;;;;;4934496;28;20474;-68
2021/06/13 11:48:51;;;;;;;3.30;3.00;;;20.00;99.60;;;;;;4917340;29;20470;-68
2021/06/13 11:51:19;;;;;;;3.17;2.97;;;20.10;99.90;;;;;;4915666;29;20490;-69
2021/06/13 11:53:57;;;;;;;8.93;3.63;;;20.40;99.90;;;;;;4916789;29;20487;-70
2021/06/13 11:56:43;;;;;;;4.73;4.30;;;20.50;99.80;;;;;;4916643;29;20477;-70
2021/06/13 11:59:14;;;;;;;4.47;4.03;;;20.60;99.90;;;;;;4916744;29;20483;-70
2021/06/13 12:01:44;;;;;;;7.80;3.33;;;20.90;99.90;;;;;;4916307;29;20498;-70
2021/06/13 12:04:13;;;;;;;3.83;3.23;;;20.90;99.90;;;;;;4915863;29;20462;-70
2021/06/13 12:06:40;;;;;;;4.50;3.90;;;21.00;99.20;;;;;;4916741;29;20514;-70
2021/06/13 12:09:09;;;;;;;8.27;3.73;;;20.90;98.90;;;;;;4916253;29;20478;-71
2021/06/13 12:11:39;;;;;;;7.40;2.93;;;20.90;98.30;;;;;;4916322;29;20828;-70
2021/06/13 12:14:25;;;;;;;4.70;3.90;;;21.00;98.40;;;;;;4916041;29;20490;-70
2021/06/13 12:16:54;;;;;;;5.20;4.70;;;21.10;98.00;;;;;;4916713;29;20469;-70
2021/06/13 12:19:31;;;;;;;2.87;2.63;;;21.00;98.70;;;;;;4928392;28;20490;-70
2021/06/13 12:22:17;;;;;;;2.97;2.77;;;21.00;97.80;;;;;;4935307;29;21013;-71
2021/06/13 12:27:25;;;;;;;5.30;3.57;;;21.20;97.30;;;;;;4935485;29;20982;-69
2021/06/13 12:29:55;;;;;;;5.00;3.83;;;21.00;97.60;;;;;;4934451;29;20461;-69
2021/06/13 12:32:22;;;;;;;4.27;3.30;;;21.10;97.80;;;;;;4935088;28;20590;-68
2021/06/13 12:34:53;;;;;;;3.53;3.23;;;21.20;97.40;;;;;;4934062;29;20490;-69
2021/06/13 12:37:21;;;;;;;4.23;3.93;;;21.00;98.30;;;;;;4935229;29;20473;-67
2021/06/13 12:39:56;;;;;;;5.13;3.00;;;20.90;98.00;;;;;;4934859;29;20461;-67
2021/06/13 12:42:23;;;;;;;4.17;3.20;;;20.90;97.00;;;;;;4934885;28;20501;-68
2021/06/13 12:45:00;;;;;;;3.87;3.30;;;20.80;97.90;;;;;;4934623;29;20469;-68
2021/06/13 12:47:27;;;;;;;3.40;3.00;;;20.70;97.60;;;;;;4935023;29;20551;-69
2021/06/13 12:49:56;;;;;;;7.07;3.87;;;20.50;98.00;;;;;;4935208;29;20466;-69
2021/06/13 12:52:23;;;;;;;5.10;3.33;;;20.50;98.90;;;;;;4934919;29;20489;-69
2021/06/13 12:54:56;;;;;;;3.13;2.83;;;20.70;99.10;;;;;;4934916;28;20520;-69
2021/06/13 12:57:23;;;;;;;3.97;3.37;;;20.80;98.50;;;;;;4935137;29;20461;-68
2021/06/13 12:59:49;;;;;;;5.13;3.80;;;20.90;98.90;;;;;;4934350;29;20866;-69
2021/06/13 13:02:18;;;;;;;4.10;3.10;;;20.90;98.80;;;;;;4934397;29;20493;-68
2021/06/13 13:04:46;;;;;;;5.43;3.37;;;20.80;99.10;;;;;;4933774;28;20474;-68
2021/06/13 13:07:13;;;;;;;3.67;3.37;;;20.60;98.30;;;;;;4930109;29;20471;-69
2021/06/13 13:10:08;;;;;;;3.30;3.10;;;20.50;98.60;;;;;;4915687;29;20471;-69
2021/06/13 13:12:36;;;;;;;8.63;3.57;;;20.50;97.90;;;;;;4912141;29;21002;-68
2021/06/13 13:15:08;;;;;;;3.53;2.80;;;20.40;98.40;;;;;;4915706;29;20494;-69
2021/06/13 13:17:37;;;;;;;5.80;3.63;;;20.50;99.60;;;;;;4916269;29;20478;-70
2021/06/13 13:20:18;;;;;;;3.90;3.33;;;20.50;99.20;;;;;;4914815;29;20814;-69
2021/06/13 13:22:46;;;;;;;4.83;3.33;;;20.60;99.50;;;;;;4915461;29;20470;-69
2021/06/13 13:25:14;;;;;;;3.90;3.60;;;20.70;99.20;;;;;;4915679;29;20470;-69
2021/06/13 13:27:41;;;;;;;4.43;3.13;;;20.90;99.50;;;;;;4915674;29;20471;-69
2021/06/13 13:30:31;;;;;;;7.07;3.60;;;21.10;98.10;;;;;;4915359;29;20489;-68
2021/06/13 13:33:01;;;;;;;5.13;3.37;;;21.20;98.20;;;;;;4915819;29;20466;-67
2021/06/13 13:35:31;;;;;;;3.70;3.40;;;21.30;98.30;;;;;;4914551;29;20549;-67
2021/06/13 13:37:58;;;;;;;3.53;3.30;;;21.20;98.20;;;;;;4915724;29;20462;-67
2021/06/13 13:40:25;;;;;;;3.60;3.30;;;21.20;98.10;;;;;;4915154;29;20959;-68
2021/06/13 13:43:00;;;;;;;3.77;3.47;;;21.20;97.60;;;;;;4918731;29;20478;-68
2021/06/13 13:45:28;;;;;;;6.33;3.80;;;21.20;98.40;;;;;;4918967;29;20465;-68
2021/06/13 13:48:08;;;;;;;4.60;3.47;;;21.10;98.40;;;;;;4928528;28;20536;-68
2021/06/13 13:50:36;;;;;;;4.07;3.10;;;20.80;97.90;;;;;;4936807;29;20489;-67
2021/06/13 13:53:21;;;;;;;4.23;3.33;;;20.70;97.60;;;;;;4937463;29;20465;-67
2021/06/13 13:55:52;;;;;;;4.07;2.87;;;20.70;98.40;;;;;;4937611;29;20496;-67
2021/06/13 13:58:20;;;;;;;3.30;3.10;;;20.80;98.70;;;;;;4937672;29;20488;-67
2021/06/13 14:00:50;;;;;;;3.73;3.43;;;20.90;98.10;;;;;;4937175;28;20509;-68
2021/06/13 14:03:18;;;;;;;2.87;2.67;;;21.00;98.00;;;;;;4938252;29;20590;-67
2021/06/13 14:05:45;;;;;;;4.80;4.33;;;21.20;97.70;;;;;;4937451;29;20464;-68
2021/06/13 14:08:11;;;;;;;3.23;2.90;;;21.40;97.50;;;;;;4937937;29;20458;-68
2021/06/13 14:10:38;;;;;;;2.90;2.63;;;21.50;97.80;;;;;;4937863;29;20547;-68
2021/06/13 14:13:05;;;;;;;4.60;3.87;;;21.40;98.20;;;;;;4937658;29;20473;-68
2021/06/13 14:15:32;;;;;;;3.13;2.80;;;21.40;97.60;;;;;;4936777;29;20489;-68
2021/06/13 14:17:59;;;;;;;3.70;2.87;;;21.60;98.00;;;;;;4937899;29;20462;-68
2021/06/13 14:20:27;;;;;;;2.90;2.70;;;21.60;97.10;;;;;;4937816;29;20468;-67
2021/06/13 14:22:53;;;;;;;3.17;2.80;;;21.60;97.60;;;;;;4938921;29;20469;-68
2021/06/13 14:25:22;;;;;;;3.40;3.10;;;21.60;97.40;;;;;;4938077;29;20481;-67
2021/06/13 14:27:49;;;;;;;5.37;2.93;;;21.60;97.20;;;;;;4939272;29;20457;-66
2021/06/13 14:30:17;;;;;;;3.00;2.73;;;21.60;97.30;;;;;;4937801;29;20503;-67
2021/06/13 14:32:44;;;;;;;4.13;2.97;;;21.50;97.40;;;;;;4937788;29;20465;-68
2021/06/13 14:35:12;;;;;;;2.63;2.50;;;21.40;98.50;;;;;;4935875;28;20506;-69
2021/06/13 14:37:41;;;;;;;3.10;2.90;;;21.40;98.00;;;;;;4918891;29;20477;-68
2021/06/13 14:40:11;;;;;;;3.07;2.80;;;21.50;98.30;;;;;;4917899;29;20467;-68
2021/06/13 14:42:39;;;;;;;3.00;2.90;;;21.70;97.80;;;;;;4918213;29;20481;-68
2021/06/13 14:45:07;;;;;;;4.93;3.47;;;21.80;97.80;;;;;;4917457;29;20467;-68
2021/06/13 14:47:34;;;;;;;3.10;2.90;;;21.70;97.10;;;;;;4918003;29;20486;-68
2021/06/13 14:50:00;;;;;;;6.97;3.07;;;21.70;97.80;;;;;;4916873;29;20481;-68
2021/06/13 14:52:27;;;;;;;3.37;3.07;;;21.70;97.80;;;;;;4917187;29;20492;-68
2021/06/13 14:54:56;;;;;;;3.67;3.37;;;21.70;98.00;;;;;;4917483;29;20915;-71
2021/06/13 14:57:23;;;;;;;4.17;3.10;;;21.80;98.00;;;;;;4917810;29;20493;-69
2021/06/13 14:59:49;;;;;;;6.50;3.23;;;21.60;97.60;;;;;;4917707;29;20891;-69
2021/06/13 15:02:17;;;;;;;6.43;3.13;;;21.50;97.30;;;;;;4917163;29;20983;-69
2021/06/13 15:04:44;;;;;;;3.03;2.83;;;21.50;97.70;;;;;;4916695;29;20466;-69
2021/06/13 15:07:11;;;;;;;3.13;2.93;;;21.60;97.90;;;;;;4917291;29;20838;-69
2021/06/13 15:09:38;;;;;;;3.13;2.90;;;21.50;97.20;;;;;;4917385;29;20505;-69
2021/06/13 15:12:08;;;;;;;3.90;2.90;;;21.50;97.50;;;;;;4917288;29;20486;-69
2021/06/13 15:14:34;;;;;;;5.07;3.47;;;21.50;97.40;;;;;;4917174;29;20467;-69
2021/06/13 15:17:02;;;;;;;3.60;3.30;;;21.60;97.50;;;;;;4917039;29;20918;-69
2021/06/13 15:19:29;;;;;;;3.53;2.80;;;21.80;98.00;;;;;;4916191;29;20479;-70
2021/06/13 15:21:56;;;;;;;3.50;3.20;;;21.80;97.20;;;;;;4917232;29;20486;-67
2021/06/13 15:24:23;;;;;;;3.90;3.27;;;21.80;97.10;;;;;;4916667;29;20466;-67
2021/06/13 15:26:49;;;;;;;2.80;2.60;;;21.80;97.10;;;;;;4916651;29;20466;-67
2021/06/13 15:29:17;;;;;;;3.43;3.20;;;21.70;97.20;;;;;;4917126;29;20474;-67
2021/06/13 15:31:45;;;;;;;4.20;3.10;;;21.90;97.90;;;;;;4917281;29;20487;-67
2021/06/13 15:34:12;;;;;;;5.40;2.90;;;21.80;96.80;;;;;;4915678;29;20477;-68
2021/06/13 15:36:39;;;;;;;3.30;2.93;;;21.90;96.90;;;;;;4916298;29;21006;-67
2021/06/13 15:39:07;;;;;;;3.20;2.77;;;21.80;96.50;;;;;;4916829;29;20467;-67
2021/06/13 15:41:34;;;;;;;5.33;3.17;;;21.70;97.30;;;;;;4916820;29;20491;-67
2021/06/13 15:44:01;;;;;;;4.87;3.40;;;21.80;97.50;;;;;;4916467;29;20476;-67
2021/06/13 15:46:29;;;;;;;3.37;3.00;;;21.90;97.30;;;;;;4916341;29;20462;-67
2021/06/13 15:48:56;;;;;;;3.67;3.37;;;21.90;97.70;;;;;;4934310;29;20489;-67
2021/06/13 15:51:23;;;;;;;3.40;3.00;;;21.90;97.10;;;;;;4934555;29;20506;-68
2021/06/13 15:53:54;;;;;;;3.63;3.33;;;21.80;97.20;;;;;;4935658;29;20466;-68
2021/06/13 15:56:21;;;;;;;3.30;3.00;;;21.80;96.90;;;;;;4935186;29;20489;-68
2021/06/13 15:58:52;;;;;;;3.90;3.33;;;21.80;97.10;;;;;;4935401;29;20465;-67
2021/06/13 16:01:18;;;;;;;4.20;3.20;;;21.80;97.10;;;;;;4934667;29;20505;-67
2021/06/13 16:03:46;;;;;;;5.20;3.63;;;21.70;97.10;;;;;;4935407;29;20470;-67
2021/06/13 16:06:13;;;;;;;5.63;3.10;;;21.70;97.60;;;;;;4934024;29;20472;-67
2021/06/13 16:08:40;;;;;;;4.20;3.20;;;21.60;97.60;;;;;;4935800;29;20472;-67
2021/06/13 16:11:07;;;;;;;2.83;2.63;;;21.60;97.30;;;;;;4935335;29;20823;-67
2021/06/13 16:13:34;;;;;;;4.27;3.93;;;21.60;97.60;;;;;;4935222;29;20802;-67
2021/06/13 16:16:01;;;;;;;4.33;3.13;;;21.60;98.00;;;;;;4935347;29;20578;-67
2021/06/13 16:18:28;;;;;;;3.80;3.50;;;21.50;97.40;;;;;;4935424;29;20472;-67
2021/06/13 16:20:56;;;;;;;3.37;3.07;;;21.60;97.70;;;;;;4934135;29;20489;-67
2021/06/13 16:23:22;;;;;;;3.87;3.50;;;21.60;97.50;;;;;;4934999;29;20461;-68
2021/06/13 16:25:49;;;;;;;3.30;3.10;;;21.60;97.70;;;;;;4934874;29;20480;-68
2021/06/13 16:28:16;;;;;;;4.40;3.30;;;21.60;97.20;;;;;;4935078;29;20469;-67
2021/06/13 16:30:43;;;;;;;3.40;3.20;;;21.60;97.60;;;;;;4934740;29;20485;-67
2021/06/13 16:33:10;;;;;;;3.43;3.23;;;21.60;97.40;;;;;;4934929;29;20477;-67
2021/06/13 16:35:37;;;;;;;3.90;3.13;;;21.60;97.10;;;;;;4933127;29;20500;-69
2021/06/13 16:38:05;;;;;;;3.90;3.27;;;21.50;97.70;;;;;;4916129;29;20556;-69
2021/06/13 16:40:32;;;;;;;3.43;3.13;;;21.60;97.60;;;;;;4916017;29;20490;-67
2021/06/13 16:42:59;;;;;;;3.70;3.20;;;21.50;97.00;;;;;;4916070;29;20471;-67
2021/06/13 16:45:27;;;;;;;3.80;3.50;;;21.50;97.10;;;;;;4916072;29;20516;-68
2021/06/13 16:47:54;;;;;;;9.57;3.40;;;21.40;97.40;;;;;;4916007;29;20478;-68
2021/06/13 16:50:21;;;;;;;3.10;2.70;;;21.40;97.50;;;;;;4914962;29;20467;-67
2021/06/13 16:52:48;;;;;;;3.07;2.83;;;21.40;97.70;;;;;;4915498;29;20472;-68
2021/06/13 16:55:16;;;;;;;3.47;3.27;;;21.40;97.60;;;;;;4915624;29;20978;-67
2021/06/13 16:57:43;;;;;;;4.93;3.40;;;21.40;97.50;;;;;;4915727;29;20971;-67
2021/06/13 17:00:11;;;;;;;5.20;3.03;;;21.30;97.00;;;;;;4915798;29;20472;-67